createdAt,value
2024-03-02T00:01:31.346Z,65.39
2024-03-02T00:04:33.245Z,65.89
2024-03-02T00:07:35.133Z,65.91
2024-03-02T00:10:38.347Z,66.33
2024-03-02T00:13:40.749Z,67.75
2024-03-02T00:16:42.671Z,67.71
2024-03-02T00:19:44.553Z,66.10
2024-03-02T00:22:49.408Z,67.56
2024-03-02T00:25:56.855Z,66.75
2024-03-02T00:28:58.939Z,67.22
2024-03-02T00:32:00.867Z,68.53
2024-03-02T00:35:02.764Z,69.90
2024-03-02T00:38:05.656Z,68.53
2024-03-02T00:41:10.523Z,68.59
2024-03-02T00:44:13.425Z,68.86
2024-03-02T00:47:15.309Z,68.92
2024-03-02T00:50:23.632Z,67.97
2024-03-02T00:53:33.749Z,68.08
2024-03-02T00:56:38.496Z,68.16
2024-03-02T00:59:40.413Z,69.22
2024-03-02T01:02:45.147Z,68.36
2024-03-02T01:05:47.235Z,70.16
2024-03-02T01:08:53.353Z,70.62
2024-03-02T01:11:55.830Z,67.67
2024-03-02T01:14:57.781Z,68.25
2024-03-02T01:17:59.739Z,68.77
2024-03-02T01:21:02.521Z,67.19
2024-03-02T01:24:04.849Z,66.88
2024-03-02T01:27:06.755Z,67.01
2024-03-02T01:30:08.976Z,64.28
2024-03-02T01:33:11.146Z,61.54
2024-03-02T01:36:13.092Z,61.51
2024-03-02T01:39:15.092Z,62.69
2024-03-02T01:42:17.085Z,63.25
2024-03-02T01:45:19.147Z,66.42
2024-03-02T01:48:21.205Z,67.45
2024-03-02T01:51:23.173Z,68.94
2024-03-02T01:54:25.435Z,69.99
2024-03-02T01:57:27.368Z,69.91
2024-03-02T02:00:29.524Z,68.62
2024-03-02T02:03:31.561Z,67.75
2024-03-02T02:06:33.686Z,67.56
2024-03-02T02:09:35.627Z,67.95
2024-03-02T02:12:37.890Z,68.56
2024-03-02T02:15:39.876Z,67.70
2024-03-02T02:18:41.975Z,67.32
2024-03-02T02:21:44.320Z,66.45
2024-03-02T02:24:46.434Z,67.50
2024-03-02T02:27:48.424Z,66.25
2024-03-02T02:30:50.478Z,65.27
2024-03-02T02:33:52.512Z,66.35
2024-03-02T02:36:54.503Z,66.28
2024-03-02T02:39:56.542Z,65.35
2024-03-02T02:42:59.263Z,65.12
2024-03-02T02:46:01.365Z,65.39
2024-03-02T02:49:03.364Z,63.74
2024-03-02T02:52:05.305Z,62.45
2024-03-02T02:55:08.144Z,62.29
2024-03-02T02:58:10.458Z,62.52
2024-03-02T03:01:12.497Z,64.17
2024-03-02T03:04:14.559Z,64.23
2024-03-02T03:07:16.514Z,66.55
2024-03-02T03:10:18.594Z,63.45
2024-03-02T03:13:20.536Z,63.82
2024-03-02T03:16:22.518Z,65.80
2024-03-02T03:19:24.438Z,65.38
2024-03-02T03:22:26.410Z,61.26
2024-03-02T03:25:28.385Z,61.29
2024-03-02T03:28:30.297Z,60.02
2024-03-02T03:31:32.328Z,58.73
2024-03-02T03:34:34.536Z,56.58
2024-03-02T03:37:36.952Z,56.72
2024-03-02T03:40:38.903Z,56.30
2024-03-02T03:43:40.829Z,57.02
2024-03-02T03:46:42.794Z,57.00
2024-03-02T03:49:44.702Z,56.53
2024-03-02T03:52:46.652Z,56.62
2024-03-02T03:55:50.348Z,56.21
2024-03-02T03:58:52.358Z,57.74
2024-03-02T04:01:54.647Z,58.46
2024-03-02T04:04:56.607Z,60.02
2024-03-02T04:07:58.557Z,59.67
2024-03-02T04:11:00.572Z,59.37
2024-03-02T04:14:02.541Z,61.61
2024-03-02T04:17:04.489Z,62.99
2024-03-02T04:20:06.818Z,60.74
2024-03-02T04:23:08.957Z,62.25
2024-03-02T04:26:10.970Z,62.40
2024-03-02T04:29:12.886Z,63.20
2024-03-02T04:32:14.920Z,62.88
2024-03-02T04:35:16.948Z,64.46
2024-03-02T04:38:18.994Z,64.03
2024-03-02T04:41:20.913Z,64.15
2024-03-02T04:44:22.823Z,64.38
2024-03-02T04:47:24.920Z,65.17
2024-03-02T04:50:26.856Z,65.64
2024-03-02T04:53:28.927Z,66.82
2024-03-02T04:56:33.860Z,65.63
2024-03-02T04:59:35.776Z,64.69
2024-03-02T05:02:37.745Z,65.66
2024-03-02T05:05:39.693Z,66.60
2024-03-02T05:08:41.750Z,65.49
2024-03-02T05:12:06.659Z,65.66
2024-03-02T05:15:08.927Z,66.12
2024-03-02T05:18:10.914Z,65.51
2024-03-02T05:21:12.976Z,67.85
2024-03-02T05:24:14.914Z,66.94
2024-03-02T05:27:16.963Z,67.05
2024-03-02T05:30:18.892Z,68.30
2024-03-02T05:33:23.762Z,69.75
2024-03-02T05:36:26.002Z,72.71
2024-03-02T05:39:28.242Z,73.51
2024-03-02T05:42:30.243Z,71.12
2024-03-02T05:45:32.223Z,70.51
2024-03-02T05:48:34.197Z,70.27
2024-03-02T05:51:36.191Z,71.78
2024-03-02T05:54:38.280Z,71.28
2024-03-02T05:57:50.711Z,67.16
2024-03-02T06:00:52.903Z,66.91
2024-03-02T06:03:58.282Z,68.13
2024-03-02T06:07:00.303Z,67.00
2024-03-02T06:10:02.484Z,65.39
2024-03-02T06:13:05.307Z,64.47
2024-03-02T06:16:07.593Z,65.98
2024-03-02T06:19:09.617Z,66.26
2024-03-02T06:22:11.615Z,66.73
2024-03-02T06:25:14.516Z,67.46
2024-03-02T06:28:16.782Z,68.77
2024-03-02T06:31:18.795Z,68.81
2024-03-02T06:34:20.797Z,69.15
2024-03-02T06:37:22.924Z,66.92
2024-03-02T06:40:24.858Z,67.24
2024-03-02T06:43:26.909Z,69.21
2024-03-02T06:46:28.891Z,67.78
2024-03-02T06:49:30.870Z,66.56
2024-03-02T06:52:32.761Z,69.13
2024-03-02T06:55:34.726Z,69.78
2024-03-02T06:58:36.644Z,71.37
2024-03-02T07:01:38.606Z,69.73
2024-03-02T07:04:40.851Z,69.72
2024-03-02T07:07:42.996Z,70.85
2024-03-02T07:10:45.045Z,71.91
2024-03-02T07:13:47.259Z,75.17
2024-03-02T07:16:49.204Z,70.11
2024-03-02T07:19:51.175Z,71.51
2024-03-02T07:22:53.099Z,71.68
2024-03-02T07:29:02.802Z,74.05
2024-03-02T07:32:04.950Z,74.37
2024-03-02T07:35:07.240Z,74.53
2024-03-02T07:38:09.183Z,74.12
2024-03-02T07:41:12.472Z,71.19
2024-03-02T07:44:15.851Z,70.24
2024-03-02T07:47:17.952Z,75.55
2024-03-02T07:50:20.742Z,76.02
2024-03-02T07:53:22.807Z,75.66
2024-03-02T07:56:24.697Z,74.83
2024-03-02T07:59:26.709Z,73.93
2024-03-02T08:02:28.626Z,73.22
2024-03-02T08:05:30.641Z,77.51
2024-03-02T08:08:33.093Z,75.06
2024-03-02T08:11:36.228Z,69.49
2024-03-02T08:14:38.218Z,68.28
2024-03-02T08:17:45.956Z,69.22
2024-03-02T08:20:47.948Z,70.31
2024-03-02T08:23:49.958Z,72.52
2024-03-02T08:26:51.897Z,76.41
2024-03-02T08:29:53.899Z,71.28
2024-03-02T08:32:55.936Z,73.88
2024-03-02T08:35:58.082Z,70.64
2024-03-02T08:39:00.087Z,73.15
2024-03-02T08:42:02.152Z,72.06
2024-03-02T08:45:04.261Z,74.36
2024-03-02T08:48:07.377Z,74.47
2024-03-02T08:51:11.439Z,72.10
2024-03-02T08:54:13.426Z,71.52
2024-03-02T08:57:15.331Z,75.95
2024-03-02T09:00:18.271Z,73.55
2024-03-02T09:03:20.576Z,75.17
2024-03-02T09:06:22.609Z,72.93
2024-03-02T09:09:24.656Z,74.11
2024-03-02T09:12:26.579Z,77.70
2024-03-02T09:15:28.674Z,74.07
2024-03-02T09:18:30.728Z,69.90
2024-03-02T09:21:32.808Z,70.04
2024-03-02T09:24:34.761Z,71.50
2024-03-02T09:27:40.068Z,70.83
2024-03-02T09:30:42.174Z,72.55
2024-03-02T09:33:44.223Z,69.66
2024-03-02T09:36:46.236Z,70.48
2024-03-02T09:39:48.221Z,69.17
2024-03-02T09:42:53.907Z,71.51
2024-03-02T09:45:55.967Z,70.05
2024-03-02T09:48:58.042Z,71.11
2024-03-02T09:52:00.320Z,72.06
2024-03-02T09:55:02.465Z,69.45
2024-03-02T09:58:04.683Z,71.80
2024-03-02T10:01:07.445Z,69.58
2024-03-02T10:04:09.496Z,71.05
2024-03-02T10:07:15.557Z,69.66
2024-03-02T10:10:17.692Z,72.33
2024-03-02T10:13:19.633Z,69.71
2024-03-02T10:16:21.586Z,69.07
2024-03-02T10:19:24.450Z,69.83
2024-03-02T10:22:27.890Z,71.54
2024-03-02T10:25:43.053Z,71.13
2024-03-02T10:29:00.509Z,70.95
2024-03-02T10:32:03.200Z,73.37
2024-03-02T10:35:05.390Z,74.23
2024-03-02T10:38:07.847Z,71.94
2024-03-02T10:41:09.875Z,70.43
2024-03-02T10:44:12.062Z,70.34
2024-03-02T10:47:14.022Z,71.11
2024-03-02T10:50:15.908Z,70.17
2024-03-02T10:53:17.838Z,72.20
2024-03-02T10:56:25.247Z,71.61
2024-03-02T10:59:27.200Z,70.27
2024-03-02T11:02:29.114Z,69.29
2024-03-02T11:05:32.940Z,68.72
2024-03-02T11:08:35.838Z,72.05
2024-03-02T11:11:38.394Z,70.22
2024-03-02T11:14:46.141Z,70.26
2024-03-02T11:17:48.124Z,68.32
2024-03-02T11:20:50.070Z,69.19
2024-03-02T11:23:52.125Z,70.93
2024-03-02T11:26:54.154Z,70.07
2024-03-02T11:29:56.245Z,67.92
2024-03-02T11:32:58.220Z,69.71
2024-03-02T11:36:00.168Z,68.37
2024-03-02T11:39:02.266Z,66.11
2024-03-02T11:42:04.450Z,68.15
2024-03-02T11:45:07.890Z,68.00
2024-03-02T11:48:13.705Z,66.10
2024-03-02T11:51:15.842Z,66.62
2024-03-02T11:54:17.823Z,67.47
2024-03-02T11:57:20.806Z,65.22
2024-03-02T12:00:23.045Z,65.86
2024-03-02T12:03:26.478Z,65.42
2024-03-02T12:06:28.828Z,67.09
2024-03-02T12:09:31.085Z,68.05
2024-03-02T12:12:33.106Z,67.89
2024-03-02T12:15:35.423Z,69.58
2024-03-02T12:18:37.652Z,68.95
2024-03-02T12:21:39.685Z,65.97
2024-03-02T12:24:41.994Z,67.21
2024-03-02T12:27:44.422Z,67.44
2024-03-02T12:30:46.458Z,67.15
2024-03-02T12:33:53.638Z,66.50
2024-03-02T12:36:57.528Z,66.32
2024-03-02T12:40:00.262Z,66.17
2024-03-02T12:43:02.631Z,67.16
2024-03-02T12:46:05.202Z,67.46
2024-03-02T12:49:12.234Z,68.83
2024-03-02T12:52:19.523Z,69.17
2024-03-02T12:55:23.688Z,69.49
2024-03-02T12:58:26.083Z,66.88
2024-03-02T13:01:28.430Z,66.54
2024-03-02T13:04:30.998Z,68.52
2024-03-02T13:07:35.002Z,66.90
2024-03-02T13:10:37.063Z,71.04
2024-03-02T13:13:39.999Z,68.50
2024-03-02T13:16:47.444Z,68.42
2024-03-02T13:19:56.854Z,70.21
2024-03-02T13:22:59.022Z,70.74
2024-03-02T13:26:01.675Z,72.18
2024-03-02T13:29:03.815Z,70.32
2024-03-02T13:32:06.155Z,70.11
2024-03-02T13:35:08.151Z,68.36
2024-03-02T13:38:10.294Z,68.65
2024-03-02T13:41:12.858Z,69.21
2024-03-02T13:44:14.966Z,69.93
2024-03-02T13:47:16.991Z,70.89
2024-03-02T13:50:19.006Z,68.89
2024-03-02T13:53:21.329Z,68.34
2024-03-02T13:56:23.829Z,70.04
2024-03-02T13:59:26.430Z,70.56
2024-03-02T14:02:28.496Z,70.25
2024-03-02T14:05:30.604Z,69.36
2024-03-02T14:08:35.231Z,69.76
2024-03-02T14:11:37.811Z,70.47
2024-03-02T14:14:39.878Z,69.74
2024-03-02T14:17:42.044Z,70.02
2024-03-02T14:20:46.383Z,67.84
2024-03-02T14:23:48.745Z,67.88
2024-03-02T14:26:50.866Z,68.11
2024-03-02T14:29:52.976Z,67.95
2024-03-02T14:32:55.099Z,69.08
2024-03-02T14:35:57.191Z,69.17
2024-03-02T14:38:59.210Z,70.86
2024-03-02T14:42:01.697Z,71.31
2024-03-02T14:45:06.128Z,70.13
2024-03-02T14:48:08.672Z,69.08
2024-03-02T14:51:11.855Z,68.80
2024-03-02T14:54:13.856Z,69.71
2024-03-02T14:57:15.928Z,68.65
2024-03-02T15:00:18.642Z,68.69
2024-03-02T15:03:20.734Z,71.72
2024-03-02T15:06:22.853Z,72.94
2024-03-02T15:09:24.892Z,70.35
2024-03-02T15:12:27.064Z,71.71
2024-03-02T15:15:29.325Z,69.27
2024-03-02T15:18:31.939Z,73.14
2024-03-02T15:21:33.991Z,71.85
2024-03-02T15:24:36.114Z,72.81
2024-03-02T15:27:38.228Z,69.67
2024-03-02T15:30:40.344Z,69.03
2024-03-02T15:33:42.546Z,69.10
2024-03-02T15:36:44.900Z,71.80
2024-03-02T15:39:46.988Z,69.41
2024-03-02T15:42:49.129Z,68.10
2024-03-02T15:45:51.198Z,67.39
2024-03-02T15:48:53.281Z,69.16
2024-03-02T15:51:55.375Z,68.25
2024-03-02T15:54:57.441Z,67.17
2024-03-02T15:57:59.908Z,69.15
2024-03-02T16:01:02.170Z,68.93
2024-03-02T16:04:04.409Z,67.74
2024-03-02T16:07:06.763Z,67.42
2024-03-02T16:10:10.047Z,68.21
2024-03-02T16:13:12.257Z,67.67
2024-03-02T16:16:14.366Z,68.31
2024-03-02T16:19:24.942Z,68.47
2024-03-02T16:22:31.669Z,69.47
2024-03-02T16:25:33.770Z,70.52
2024-03-02T16:28:35.890Z,70.21
2024-03-02T16:31:37.937Z,68.85
2024-03-02T16:34:40.188Z,72.11
2024-03-02T16:37:42.796Z,70.15
2024-03-02T16:40:46.197Z,69.80
2024-03-02T16:43:48.310Z,70.01
2024-03-02T16:46:50.668Z,67.89
2024-03-02T16:49:52.844Z,70.77
2024-03-02T16:52:55.120Z,71.06
2024-03-02T16:56:01.308Z,69.33
2024-03-02T16:59:03.353Z,69.66
2024-03-02T17:02:05.646Z,67.70
2024-03-02T17:05:08.479Z,68.20
2024-03-02T17:08:10.618Z,68.09
2024-03-02T17:11:12.708Z,68.92
2024-03-02T17:14:14.686Z,71.07
2024-03-02T17:17:22.124Z,68.78
2024-03-02T17:20:25.159Z,68.79
2024-03-02T17:23:32.470Z,68.96
2024-03-02T17:26:36.106Z,69.53
2024-03-02T17:29:38.225Z,70.10
2024-03-02T17:32:40.332Z,70.86
2024-03-02T17:35:42.563Z,69.53
2024-03-02T17:38:44.581Z,69.90
2024-03-02T17:41:46.596Z,69.05
2024-03-02T17:44:48.685Z,69.85
2024-03-02T17:47:50.848Z,72.69
2024-03-02T17:50:52.902Z,70.97
2024-03-02T17:53:54.969Z,72.63
2024-03-02T17:56:57.020Z,73.48
2024-03-02T17:59:58.960Z,72.10
2024-03-02T18:03:01.112Z,71.45
2024-03-02T18:06:06.474Z,69.45
2024-03-02T18:09:08.665Z,68.53
2024-03-02T18:12:10.786Z,70.13
2024-03-02T18:15:13.049Z,69.04
2024-03-02T18:18:15.152Z,68.91
2024-03-02T18:21:17.144Z,69.06
2024-03-02T18:24:22.418Z,71.41
2024-03-02T18:27:24.502Z,69.12
2024-03-02T18:30:26.603Z,69.52
2024-03-02T18:33:28.706Z,68.71
2024-03-02T18:36:30.849Z,70.54
2024-03-02T18:39:33.083Z,68.92
2024-03-02T18:42:35.338Z,68.39
2024-03-02T18:45:37.488Z,69.68
2024-03-02T18:48:40.042Z,69.31
2024-03-02T18:51:43.446Z,70.54
2024-03-02T18:54:45.520Z,73.52
2024-03-02T18:57:48.192Z,72.86
2024-03-02T19:00:50.554Z,72.84
2024-03-02T19:03:52.986Z,69.78
2024-03-02T19:06:55.788Z,75.31
2024-03-02T19:09:57.826Z,75.12
2024-03-02T19:12:59.983Z,72.15
2024-03-02T19:26:22.553Z,70.39
2024-03-02T19:33:45.520Z,69.20
2024-03-02T19:39:59.328Z,70.55
2024-03-02T19:43:01.711Z,68.83
2024-03-02T19:46:04.482Z,70.33
2024-03-02T19:49:07.573Z,68.28
2024-03-02T19:52:09.888Z,68.33
2024-03-02T19:55:14.186Z,67.52
2024-03-02T19:58:16.512Z,68.23
2024-03-02T20:01:19.321Z,67.81
2024-03-02T20:04:26.097Z,69.72
2024-03-02T20:07:28.183Z,68.60
2024-03-02T20:10:30.989Z,68.54
2024-03-02T20:13:34.710Z,68.17
2024-03-02T20:16:36.749Z,69.37
2024-03-02T20:19:42.018Z,67.11
2024-03-02T20:22:44.215Z,67.35
2024-03-02T20:25:46.363Z,66.91
2024-03-02T20:28:48.584Z,66.94
2024-03-02T20:31:50.597Z,67.68
2024-03-02T20:34:52.829Z,67.78
2024-03-02T20:37:54.906Z,68.41
2024-03-02T20:40:56.988Z,68.18
2024-03-02T20:43:59.120Z,71.70
2024-03-02T20:47:01.204Z,68.28
2024-03-02T20:50:04.194Z,67.64
2024-03-02T20:53:08.240Z,71.51
2024-03-02T20:56:10.387Z,69.01
2024-03-02T20:59:12.511Z,68.54
2024-03-02T21:02:14.676Z,66.66
2024-03-02T21:05:18.033Z,68.87
2024-03-02T21:08:20.085Z,67.09
2024-03-02T21:11:23.366Z,66.50
2024-03-02T21:14:25.466Z,66.37
2024-03-02T21:20:30.594Z,66.22
2024-03-02T21:23:34.752Z,67.05
2024-03-02T21:26:40.463Z,67.33
2024-03-02T21:29:42.563Z,66.86
2024-03-02T21:32:44.720Z,65.64
2024-03-02T21:35:46.751Z,66.23
2024-03-02T21:38:48.861Z,67.55
2024-03-02T21:41:52.326Z,66.87
2024-03-02T21:44:54.610Z,65.81
2024-03-02T21:47:56.740Z,66.13
2024-03-02T21:50:59.368Z,66.52
2024-03-02T21:54:01.372Z,66.10
2024-03-02T21:57:04.224Z,66.29
2024-03-02T22:00:06.850Z,67.79
2024-03-02T22:03:08.922Z,69.26
2024-03-02T22:06:11.345Z,70.19
2024-03-02T22:09:16.493Z,68.27
2024-03-02T22:12:18.479Z,68.62
2024-03-02T22:15:20.824Z,67.10
2024-03-02T22:18:23.164Z,70.07
2024-03-02T22:21:25.232Z,71.21
2024-03-02T22:24:27.623Z,69.51
2024-03-02T22:27:29.679Z,70.59
2024-03-02T22:30:31.780Z,68.95
2024-03-02T22:33:33.954Z,68.00
2024-03-02T22:36:36.070Z,68.08
2024-03-02T22:39:38.216Z,67.17
2024-03-02T22:42:40.387Z,65.99
2024-03-02T22:45:42.541Z,66.16
2024-03-02T22:48:44.719Z,65.00
2024-03-02T22:51:46.873Z,65.14
2024-03-02T22:54:48.973Z,65.59
2024-03-02T22:57:51.557Z,67.76
2024-03-02T23:00:59.219Z,68.50
2024-03-02T23:04:01.319Z,68.80
2024-03-02T23:07:03.412Z,68.71
2024-03-02T23:10:06.326Z,66.92
2024-03-02T23:13:08.402Z,65.55
2024-03-02T23:16:10.583Z,67.67
2024-03-02T23:19:15.337Z,68.14
2024-03-02T23:22:17.559Z,69.98
2024-03-02T23:25:19.688Z,70.26
2024-03-02T23:28:21.712Z,69.25
2024-03-02T23:31:23.808Z,68.24
2024-03-02T23:34:27.457Z,69.68
2024-03-02T23:37:30.198Z,67.79
2024-03-02T23:40:38.116Z,69.33
2024-03-02T23:43:40.420Z,70.53
2024-03-02T23:46:42.431Z,69.43
2024-03-02T23:49:44.537Z,69.57
2024-03-02T23:52:48.176Z,70.89
2024-03-02T23:55:52.799Z,72.79
2024-03-02T23:58:55.429Z,73.33
